Terminal Aerodrome Forecast
Issued by NWS Grand Forks, ND

Home | Current Version | Previous Version | Text Only | Print | Product List | Glossary Off
Versions: 1 2 3 4 5 6 7 8 9 10 11 12 13 14 15 16 17 18 19 20 21 22

202
FTUS43 KFGF 231439 AAA
TAFGFK
TAF AMD
KGFK 231439Z 2315/2412 36014KT P6SM OVC025
     FM231700 02014G22KT P6SM BKN030
     FM232000 02013KT P6SM BKN040
     FM240200 04006KT P6SM SCT100=

USA.gov is the U.S. government's official web portal to all federal, state and local government web resources and services.